sensor_id;sensor_type;location;lat;lon;timestamp;pressure;altitude;pressure_sealevel;temperature;humidity
50682;BME280;36779;52.168;20.878;2023-03-25T00:00:19;99297.52;;;10.21;68.88
50682;BME280;36779;52.168;20.878;2023-03-25T00:03:09;99297.60;;;10.19;68.90
50682;BME280;36779;52.168;20.878;2023-03-25T00:05:39;99294.23;;;10.16;68.82
50682;BME280;36779;52.168;20.878;2023-03-25T00:08:08;99289.59;;;10.10;68.80
50682;BME280;36779;52.168;20.878;2023-03-25T00:10:38;99289.02;;;10.03;68.74
50682;BME280;36779;52.168;20.878;2023-03-25T00:13:06;99289.39;;;9.97;68.79
50682;BME280;36779;52.168;20.878;2023-03-25T00:15:35;99292.00;;;9.94;68.75
50682;BME280;36779;52.168;20.878;2023-03-25T00:18:05;99288.30;;;9.90;68.88
50682;BME280;36779;52.168;20.878;2023-03-25T00:20:33;99296.44;;;9.86;68.96
50682;BME280;36779;52.168;20.878;2023-03-25T00:23:02;99303.22;;;9.84;68.89
50682;BME280;36779;52.168;20.878;2023-03-25T00:25:31;99294.44;;;9.83;68.97
50682;BME280;36779;52.168;20.878;2023-03-25T00:28:00;99281.46;;;9.84;69.00
50682;BME280;36779;52.168;20.878;2023-03-25T00:30:30;99286.59;;;9.85;68.97
50682;BME280;36779;52.168;20.878;2023-03-25T00:32:59;99293.84;;;9.85;69.05
50682;BME280;36779;52.168;20.878;2023-03-25T00:35:28;99296.77;;;9.86;69.06
50682;BME280;36779;52.168;20.878;2023-03-25T00:37:57;99288.82;;;9.86;69.10
50682;BME280;36779;52.168;20.878;2023-03-25T00:40:30;99289.78;;;9.87;69.11
50682;BME280;36779;52.168;20.878;2023-03-25T00:43:02;99284.29;;;9.84;69.07
50682;BME280;36779;52.168;20.878;2023-03-25T00:45:32;99294.54;;;9.84;69.12
50682;BME280;36779;52.168;20.878;2023-03-25T00:48:01;99294.05;;;9.82;69.09
50682;BME280;36779;52.168;20.878;2023-03-25T00:50:34;99291.12;;;9.77;69.08
50682;BME280;36779;52.168;20.878;2023-03-25T00:53:03;99291.15;;;9.74;69.14
50682;BME280;36779;52.168;20.878;2023-03-25T00:55:32;99290.02;;;9.72;69.17
50682;BME280;36779;52.168;20.878;2023-03-25T00:58:01;99285.60;;;9.69;69.06
50682;BME280;36779;52.168;20.878;2023-03-25T01:00:33;99291.64;;;9.65;69.09
50682;BME280;36779;52.168;20.878;2023-03-25T01:03:03;99291.14;;;9.63;69.13
50682;BME280;36779;52.168;20.878;2023-03-25T01:05:32;99289.32;;;9.59;69.09
50682;BME280;36779;52.168;20.878;2023-03-25T01:08:00;99286.09;;;9.57;69.20
50682;BME280;36779;52.168;20.878;2023-03-25T01:10:31;99294.38;;;9.56;69.22
50682;BME280;36779;52.168;20.878;2023-03-25T01:13:03;99294.04;;;9.53;69.12
50682;BME280;36779;52.168;20.878;2023-03-25T01:15:33;99293.09;;;9.51;69.19
50682;BME280;36779;52.168;20.878;2023-03-25T01:18:02;99290.58;;;9.51;69.23
50682;BME280;36779;52.168;20.878;2023-03-25T01:20:31;99290.11;;;9.50;69.24
50682;BME280;36779;52.168;20.878;2023-03-25T01:23:00;99287.98;;;9.47;69.21
50682;BME280;36779;52.168;20.878;2023-03-25T01:25:29;99288.60;;;9.40;69.23
50682;BME280;36779;52.168;20.878;2023-03-25T01:27:59;99294.54;;;9.35;69.31
50682;BME280;36779;52.168;20.878;2023-03-25T01:30:29;99293.24;;;9.28;69.24
50682;BME280;36779;52.168;20.878;2023-03-25T01:32:58;99287.30;;;9.19;69.08
50682;BME280;36779;52.168;20.878;2023-03-25T01:35:28;99285.60;;;9.13;69.25
50682;BME280;36779;52.168;20.878;2023-03-25T01:37:56;99282.59;;;9.08;69.14
50682;BME280;36779;52.168;20.878;2023-03-25T01:40:25;99282.17;;;9.03;69.11
50682;BME280;36779;52.168;20.878;2023-03-25T01:42:54;99282.05;;;8.98;69.27
50682;BME280;36779;52.168;20.878;2023-03-25T01:45:26;99286.31;;;8.94;69.33
50682;BME280;36779;52.168;20.878;2023-03-25T01:48:03;99287.38;;;8.91;69.26
50682;BME280;36779;52.168;20.878;2023-03-25T01:50:36;99283.23;;;8.89;69.32
50682;BME280;36779;52.168;20.878;2023-03-25T01:53:06;99281.75;;;8.84;69.33
50682;BME280;36779;52.168;20.878;2023-03-25T01:55:37;99276.50;;;8.80;69.29
50682;BME280;36779;52.168;20.878;2023-03-25T01:58:13;99276.67;;;8.78;69.29
50682;BME280;36779;52.168;20.878;2023-03-25T02:00:46;99282.08;;;8.76;69.28
50682;BME280;36779;52.168;20.878;2023-03-25T02:03:19;99284.34;;;8.75;69.46
50682;BME280;36779;52.168;20.878;2023-03-25T02:05:54;99291.02;;;8.72;69.49
50682;BME280;36779;52.168;20.878;2023-03-25T02:08:27;99301.92;;;8.67;69.36
50682;BME280;36779;52.168;20.878;2023-03-25T02:11:02;99296.28;;;8.63;69.53
50682;BME280;36779;52.168;20.878;2023-03-25T02:13:31;99295.20;;;8.60;69.52
50682;BME280;36779;52.168;20.878;2023-03-25T02:16:19;99299.11;;;8.56;69.63
50682;BME280;36779;52.168;20.878;2023-03-25T02:18:58;99291.02;;;8.49;69.56
50682;BME280;36779;52.168;20.878;2023-03-25T02:21:56;99285.17;;;8.43;69.47
50682;BME280;36779;52.168;20.878;2023-03-25T02:27:42;99280.59;;;8.33;69.38
50682;BME280;36779;52.168;20.878;2023-03-25T02:36:45;99268.97;;;8.17;69.63
50682;BME280;36779;52.168;20.878;2023-03-25T02:39:32;99272.92;;;8.15;69.49
50682;BME280;36779;52.168;20.878;2023-03-25T02:42:13;99278.14;;;8.09;69.49
50682;BME280;36779;52.168;20.878;2023-03-25T02:44:52;99280.12;;;8.09;69.73
50682;BME280;36779;52.168;20.878;2023-03-25T02:47:28;99284.11;;;8.13;69.75
50682;BME280;36779;52.168;20.878;2023-03-25T02:50:04;99288.89;;;8.11;69.74
50682;BME280;36779;52.168;20.878;2023-03-25T02:52:37;99289.14;;;8.11;69.82
50682;BME280;36779;52.168;20.878;2023-03-25T02:55:10;99287.25;;;8.11;69.99
50682;BME280;36779;52.168;20.878;2023-03-25T02:57:44;99290.34;;;8.10;69.86
50682;BME280;36779;52.168;20.878;2023-03-25T03:00:19;99290.16;;;8.05;69.92
50682;BME280;36779;52.168;20.878;2023-03-25T03:02:53;99286.29;;;8.00;69.81
50682;BME280;36779;52.168;20.878;2023-03-25T03:05:29;99287.53;;;7.97;69.93
50682;BME280;36779;52.168;20.878;2023-03-25T03:08:09;99290.43;;;7.94;69.82
50682;BME280;36779;52.168;20.878;2023-03-25T03:10:49;99287.49;;;7.91;69.83
50682;BME280;36779;52.168;20.878;2023-03-25T03:13:28;99293.17;;;7.88;69.73
50682;BME280;36779;52.168;20.878;2023-03-25T03:16:08;99292.98;;;7.83;69.80
50682;BME280;36779;52.168;20.878;2023-03-25T03:18:46;99301.65;;;7.78;69.71
50682;BME280;36779;52.168;20.878;2023-03-25T03:21:25;99304.58;;;7.71;69.62
50682;BME280;36779;52.168;20.878;2023-03-25T03:24:04;99295.27;;;7.72;69.83
50682;BME280;36779;52.168;20.878;2023-03-25T03:26:39;99298.00;;;7.73;69.93
50682;BME280;36779;52.168;20.878;2023-03-25T03:29:13;99298.14;;;7.68;69.87
50682;BME280;36779;52.168;20.878;2023-03-25T03:31:50;99297.50;;;7.61;69.74
50682;BME280;36779;52.168;20.878;2023-03-25T03:34:42;99298.73;;;7.58;69.87
50682;BME280;36779;52.168;20.878;2023-03-25T03:37:17;99296.05;;;7.55;69.99
50682;BME280;36779;52.168;20.878;2023-03-25T03:39:50;99297.41;;;7.51;69.91
50682;BME280;36779;52.168;20.878;2023-03-25T03:42:25;99292.77;;;7.42;69.74
50682;BME280;36779;52.168;20.878;2023-03-25T03:44:59;99292.25;;;7.35;69.76
50682;BME280;36779;52.168;20.878;2023-03-25T03:47:33;99292.98;;;7.30;69.77
50682;BME280;36779;52.168;20.878;2023-03-25T03:50:08;99294.73;;;7.25;69.78
50682;BME280;36779;52.168;20.878;2023-03-25T03:52:42;99295.10;;;7.22;69.79
50682;BME280;36779;52.168;20.878;2023-03-25T03:55:15;99303.75;;;7.17;69.74
50682;BME280;36779;52.168;20.878;2023-03-25T03:57:50;99311.34;;;7.19;70.07
50682;BME280;36779;52.168;20.878;2023-03-25T04:00:25;99314.06;;;7.26;70.24
50682;BME280;36779;52.168;20.878;2023-03-25T04:03:00;99307.00;;;7.24;69.86
50682;BME280;36779;52.168;20.878;2023-03-25T04:05:32;99312.17;;;7.18;69.99
50682;BME280;36779;52.168;20.878;2023-03-25T04:08:07;99314.10;;;7.23;70.30
50682;BME280;36779;52.168;20.878;2023-03-25T04:10:47;99311.73;;;7.28;70.26
50682;BME280;36779;52.168;20.878;2023-03-25T04:13:21;99311.50;;;7.27;70.26
50682;BME280;36779;52.168;20.878;2023-03-25T04:15:51;99317.20;;;7.23;70.20
50682;BME280;36779;52.168;20.878;2023-03-25T04:18:20;99317.55;;;7.20;70.26
50682;BME280;36779;52.168;20.878;2023-03-25T04:20:50;99317.08;;;7.21;70.41
50682;BME280;36779;52.168;20.878;2023-03-25T04:23:19;99321.55;;;7.24;70.42
50682;BME280;36779;52.168;20.878;2023-03-25T04:25:48;99322.71;;;7.26;70.52
50682;BME280;36779;52.168;20.878;2023-03-25T04:28:20;99322.54;;;7.26;70.39
50682;BME280;36779;52.168;20.878;2023-03-25T04:30:51;99326.71;;;7.24;70.27
50682;BME280;36779;52.168;20.878;2023-03-25T04:33:23;99326.06;;;7.22;70.17
50682;BME280;36779;52.168;20.878;2023-03-25T04:35:53;99333.70;;;7.21;70.30
50682;BME280;36779;52.168;20.878;2023-03-25T04:38:22;99338.88;;;7.25;70.43
50682;BME280;36779;52.168;20.878;2023-03-25T04:40:52;99332.89;;;7.24;70.13
50682;BME280;36779;52.168;20.878;2023-03-25T04:43:20;99326.68;;;7.22;70.16
50682;BME280;36779;52.168;20.878;2023-03-25T04:45:49;99328.20;;;7.28;70.44
50682;BME280;36779;52.168;20.878;2023-03-25T04:48:26;99327.46;;;7.38;70.80
50682;BME280;36779;52.168;20.878;2023-03-25T04:50:58;99322.20;;;7.41;70.50
50682;BME280;36779;52.168;20.878;2023-03-25T04:53:29;99323.99;;;7.28;70.10
50682;BME280;36779;52.168;20.878;2023-03-25T04:55:58;99322.55;;;7.15;70.05
50682;BME280;36779;52.168;20.878;2023-03-25T04:58:27;99324.05;;;7.13;70.15
50682;BME280;36779;52.168;20.878;2023-03-25T05:00:58;99327.58;;;7.16;70.47
50682;BME280;36779;52.168;20.878;2023-03-25T05:03:33;99334.67;;;7.25;70.59
50682;BME280;36779;52.168;20.878;2023-03-25T05:06:02;99336.29;;;7.35;70.68
50682;BME280;36779;52.168;20.878;2023-03-25T05:08:31;99331.20;;;7.44;70.80
50682;BME280;36779;52.168;20.878;2023-03-25T05:11:00;99331.48;;;7.51;70.64
50682;BME280;36779;52.168;20.878;2023-03-25T05:13:30;99327.67;;;7.59;70.95
50682;BME280;36779;52.168;20.878;2023-03-25T05:15:58;99329.50;;;7.69;70.97
50682;BME280;36779;52.168;20.878;2023-03-25T05:18:28;99328.30;;;7.74;70.89
50682;BME280;36779;52.168;20.878;2023-03-25T05:20:57;99331.45;;;7.79;70.94
50682;BME280;36779;52.168;20.878;2023-03-25T05:23:28;99333.90;;;7.87;71.03
50682;BME280;36779;52.168;20.878;2023-03-25T05:25:59;99332.33;;;7.95;71.08
50682;BME280;36779;52.168;20.878;2023-03-25T05:28:29;99334.70;;;7.99;71.11
50682;BME280;36779;52.168;20.878;2023-03-25T05:30:58;99329.11;;;8.01;71.11
50682;BME280;36779;52.168;20.878;2023-03-25T05:33:27;99331.01;;;8.04;71.06
50682;BME280;36779;52.168;20.878;2023-03-25T05:35:56;99332.65;;;8.05;71.03
50682;BME280;36779;52.168;20.878;2023-03-25T05:38:26;99338.55;;;8.06;70.82
50682;BME280;36779;52.168;20.878;2023-03-25T05:40:55;99348.73;;;8.08;70.99
50682;BME280;36779;52.168;20.878;2023-03-25T05:43:25;99342.20;;;8.10;70.81
50682;BME280;36779;52.168;20.878;2023-03-25T05:45:54;99341.11;;;8.13;70.91
50682;BME280;36779;52.168;20.878;2023-03-25T05:48:22;99344.11;;;8.19;70.93
50682;BME280;36779;52.168;20.878;2023-03-25T05:50:52;99340.35;;;8.28;71.13
50682;BME280;36779;52.168;20.878;2023-03-25T05:53:23;99344.19;;;8.35;71.14
50682;BME280;36779;52.168;20.878;2023-03-25T05:55:53;99348.79;;;8.42;71.18
50682;BME280;36779;52.168;20.878;2023-03-25T05:58:23;99353.20;;;8.48;71.12
50682;BME280;36779;52.168;20.878;2023-03-25T06:00:52;99351.70;;;8.49;71.06
50682;BME280;36779;52.168;20.878;2023-03-25T06:03:21;99355.70;;;8.48;71.03
50682;BME280;36779;52.168;20.878;2023-03-25T06:05:53;99354.91;;;8.51;71.10
50682;BME280;36779;52.168;20.878;2023-03-25T06:08:22;99350.69;;;8.53;71.11
50682;BME280;36779;52.168;20.878;2023-03-25T06:10:54;99350.30;;;8.54;71.04
50682;BME280;36779;52.168;20.878;2023-03-25T06:13:26;99351.36;;;8.57;70.95
50682;BME280;36779;52.168;20.878;2023-03-25T06:15:55;99351.48;;;8.61;70.96
50682;BME280;36779;52.168;20.878;2023-03-25T06:18:25;99348.92;;;8.68;71.18
50682;BME280;36779;52.168;20.878;2023-03-25T06:20:54;99351.66;;;8.77;71.27
50682;BME280;36779;52.168;20.878;2023-03-25T06:23:24;99345.92;;;8.86;71.13
50682;BME280;36779;52.168;20.878;2023-03-25T06:25:55;99346.58;;;8.96;71.12
50682;BME280;36779;52.168;20.878;2023-03-25T06:28:25;99351.35;;;9.07;71.27
50682;BME280;36779;52.168;20.878;2023-03-25T06:30:54;99351.06;;;9.18;71.14
50682;BME280;36779;52.168;20.878;2023-03-25T06:33:24;99353.59;;;9.30;71.26
50682;BME280;36779;52.168;20.878;2023-03-25T06:36:14;99356.09;;;9.45;71.39
50682;BME280;36779;52.168;20.878;2023-03-25T06:38:47;99355.00;;;9.61;71.48
50682;BME280;36779;52.168;20.878;2023-03-25T06:41:18;99352.84;;;9.79;71.57
50682;BME280;36779;52.168;20.878;2023-03-25T06:43:50;99353.52;;;9.94;71.58
50682;BME280;36779;52.168;20.878;2023-03-25T06:46:41;99351.54;;;10.02;71.29
50682;BME280;36779;52.168;20.878;2023-03-25T06:49:28;99352.09;;;10.06;71.24
50682;BME280;36779;52.168;20.878;2023-03-25T06:52:00;99348.02;;;10.05;71.02
50682;BME280;36779;52.168;20.878;2023-03-25T06:54:30;99345.75;;;10.07;71.09
50682;BME280;36779;52.168;20.878;2023-03-25T06:57:02;99350.53;;;10.11;71.04
50682;BME280;36779;52.168;20.878;2023-03-25T06:59:32;99342.70;;;10.18;71.11
50682;BME280;36779;52.168;20.878;2023-03-25T07:02:02;99337.08;;;10.23;70.99
50682;BME280;36779;52.168;20.878;2023-03-25T07:04:34;99333.52;;;10.28;71.12
50682;BME280;36779;52.168;20.878;2023-03-25T07:07:06;99333.52;;;10.33;71.23
50682;BME280;36779;52.168;20.878;2023-03-25T07:09:35;99336.46;;;10.40;71.13
50682;BME280;36779;52.168;20.878;2023-03-25T07:12:07;99334.64;;;10.39;70.83
50682;BME280;36779;52.168;20.878;2023-03-25T07:14:37;99338.94;;;10.40;70.89
50682;BME280;36779;52.168;20.878;2023-03-25T07:17:06;99338.45;;;10.45;71.08
50682;BME280;36779;52.168;20.878;2023-03-25T07:19:35;99342.85;;;10.53;71.11
50682;BME280;36779;52.168;20.878;2023-03-25T07:22:04;99345.60;;;10.68;71.28
50682;BME280;36779;52.168;20.878;2023-03-25T07:24:33;99343.80;;;10.96;71.74
50682;BME280;36779;52.168;20.878;2023-03-25T07:27:03;99344.48;;;11.19;71.46
50682;BME280;36779;52.168;20.878;2023-03-25T07:29:32;99338.70;;;11.34;71.37
50682;BME280;36779;52.168;20.878;2023-03-25T07:32:02;99341.33;;;11.48;71.25
50682;BME280;36779;52.168;20.878;2023-03-25T07:34:33;99339.08;;;11.68;71.61
50682;BME280;36779;52.168;20.878;2023-03-25T07:37:02;99337.81;;;11.96;71.50
50682;BME280;36779;52.168;20.878;2023-03-25T07:39:34;99338.69;;;12.11;71.59
50682;BME280;36779;52.168;20.878;2023-03-25T07:42:05;99347.20;;;12.28;71.27
50682;BME280;36779;52.168;20.878;2023-03-25T07:44:53;99338.89;;;12.37;71.06
50682;BME280;36779;52.168;20.878;2023-03-25T07:47:23;99339.41;;;12.45;70.93
50682;BME280;36779;52.168;20.878;2023-03-25T07:49:51;99339.84;;;12.49;70.46
50682;BME280;36779;52.168;20.878;2023-03-25T07:52:21;99343.12;;;12.58;70.72
50682;BME280;36779;52.168;20.878;2023-03-25T07:54:50;99346.84;;;12.92;71.39
50682;BME280;36779;52.168;20.878;2023-03-25T07:57:20;99351.58;;;13.33;71.52
50682;BME280;36779;52.168;20.878;2023-03-25T07:59:49;99349.73;;;13.55;70.78
50682;BME280;36779;52.168;20.878;2023-03-25T08:02:20;99348.33;;;13.58;70.40
50682;BME280;36779;52.168;20.878;2023-03-25T08:04:49;99347.83;;;13.71;70.47
50682;BME280;36779;52.168;20.878;2023-03-25T08:07:21;99339.67;;;13.93;70.86
50682;BME280;36779;52.168;20.878;2023-03-25T08:09:50;99336.67;;;14.33;71.37
50682;BME280;36779;52.168;20.878;2023-03-25T08:12:21;99335.02;;;14.85;71.39
50682;BME280;36779;52.168;20.878;2023-03-25T08:14:50;99338.86;;;15.37;71.54
50682;BME280;36779;52.168;20.878;2023-03-25T08:17:20;99343.23;;;16.16;71.96
50682;BME280;36779;52.168;20.878;2023-03-25T08:19:49;99333.47;;;16.93;71.50
50682;BME280;36779;52.168;20.878;2023-03-25T08:22:19;99337.09;;;17.42;70.85
50682;BME280;36779;52.168;20.878;2023-03-25T08:24:48;99337.71;;;17.96;70.56
50682;BME280;36779;52.168;20.878;2023-03-25T08:27:17;99334.98;;;18.51;70.16
50682;BME280;36779;52.168;20.878;2023-03-25T08:29:46;99331.52;;;18.79;69.00
50682;BME280;36779;52.168;20.878;2023-03-25T08:32:21;99333.28;;;18.93;68.42
50682;BME280;36779;52.168;20.878;2023-03-25T08:34:51;99331.48;;;18.89;67.74
50682;BME280;36779;52.168;20.878;2023-03-25T08:37:20;99325.95;;;18.60;67.05
50682;BME280;36779;52.168;20.878;2023-03-25T08:39:49;99327.25;;;18.33;66.86
50682;BME280;36779;52.168;20.878;2023-03-25T08:42:21;99325.75;;;18.06;66.39
50682;BME280;36779;52.168;20.878;2023-03-25T08:44:50;99324.43;;;17.63;66.28
50682;BME280;36779;52.168;20.878;2023-03-25T08:47:21;99320.89;;;17.37;66.73
50682;BME280;36779;52.168;20.878;2023-03-25T08:49:50;99318.67;;;17.23;66.95
50682;BME280;36779;52.168;20.878;2023-03-25T08:52:19;99321.19;;;17.17;67.16
50682;BME280;36779;52.168;20.878;2023-03-25T08:54:48;99315.77;;;17.19;67.28
50682;BME280;36779;52.168;20.878;2023-03-25T08:57:17;99322.14;;;17.36;67.58
50682;BME280;36779;52.168;20.878;2023-03-25T08:59:49;99319.79;;;17.53;67.09
50682;BME280;36779;52.168;20.878;2023-03-25T09:02:17;99318.67;;;17.43;66.38
50682;BME280;36779;52.168;20.878;2023-03-25T09:04:49;99316.61;;;17.35;66.48
50682;BME280;36779;52.168;20.878;2023-03-25T09:07:19;99315.70;;;17.45;66.69
50682;BME280;36779;52.168;20.878;2023-03-25T09:09:50;99314.98;;;17.90;67.42
50682;BME280;36779;52.168;20.878;2023-03-25T09:12:20;99312.86;;;18.39;67.48
50682;BME280;36779;52.168;20.878;2023-03-25T09:14:48;99315.33;;;18.89;67.20
50682;BME280;36779;52.168;20.878;2023-03-25T09:17:17;99313.43;;;18.96;66.09
50682;BME280;36779;52.168;20.878;2023-03-25T09:19:48;99316.67;;;18.79;65.61
50682;BME280;36779;52.168;20.878;2023-03-25T09:22:19;99314.59;;;18.75;65.67
50682;BME280;36779;52.168;20.878;2023-03-25T09:24:48;99315.00;;;18.55;65.22
50682;BME280;36779;52.168;20.878;2023-03-25T09:27:18;99314.55;;;18.25;64.82
50682;BME280;36779;52.168;20.878;2023-03-25T09:29:47;99315.64;;;18.05;65.23
50682;BME280;36779;52.168;20.878;2023-03-25T09:32:16;99313.00;;;18.00;65.35
50682;BME280;36779;52.168;20.878;2023-03-25T09:34:47;99315.00;;;18.00;65.35
50682;BME280;36779;52.168;20.878;2023-03-25T09:37:17;99315.30;;;17.91;65.25
50682;BME280;36779;52.168;20.878;2023-03-25T09:39:46;99313.80;;;17.84;65.43
50682;BME280;36779;52.168;20.878;2023-03-25T09:42:32;99313.33;;;17.80;65.27
50682;BME280;36779;52.168;20.878;2023-03-25T09:45:05;99314.56;;;17.56;64.52
50682;BME280;36779;52.168;20.878;2023-03-25T09:47:42;99310.84;;;17.22;64.47
50682;BME280;36779;52.168;20.878;2023-03-25T09:50:14;99308.05;;;16.99;64.51
50682;BME280;36779;52.168;20.878;2023-03-25T09:52:50;99308.94;;;16.80;64.49
50682;BME280;36779;52.168;20.878;2023-03-25T09:55:25;99310.13;;;16.68;64.88
50682;BME280;36779;52.168;20.878;2023-03-25T09:58:00;99309.24;;;16.71;65.19
50682;BME280;36779;52.168;20.878;2023-03-25T10:00:30;99314.70;;;16.72;65.12
50682;BME280;36779;52.168;20.878;2023-03-25T10:03:10;99312.23;;;16.70;65.00
50682;BME280;36779;52.168;20.878;2023-03-25T10:06:14;99308.28;;;16.63;64.96
50682;BME280;36779;52.168;20.878;2023-03-25T10:09:05;99306.59;;;16.59;64.98
50682;BME280;36779;52.168;20.878;2023-03-25T10:11:44;99304.06;;;16.59;65.15
50682;BME280;36779;52.168;20.878;2023-03-25T10:14:20;99299.66;;;16.51;64.75
50682;BME280;36779;52.168;20.878;2023-03-25T10:17:03;99297.45;;;16.37;64.75
50682;BME280;36779;52.168;20.878;2023-03-25T10:19:46;99299.19;;;16.56;65.49
50682;BME280;36779;52.168;20.878;2023-03-25T10:22:25;99300.34;;;16.88;65.61
50682;BME280;36779;52.168;20.878;2023-03-25T10:24:57;99296.21;;;17.14;65.80
50682;BME280;36779;52.168;20.878;2023-03-25T10:27:32;99292.97;;;17.43;65.88
50682;BME280;36779;52.168;20.878;2023-03-25T10:30:09;99293.00;;;17.65;65.56
50682;BME280;36779;52.168;20.878;2023-03-25T10:32:44;99291.88;;;17.60;64.92
50682;BME280;36779;52.168;20.878;2023-03-25T10:35:18;99287.11;;;17.45;64.47
50682;BME280;36779;52.168;20.878;2023-03-25T10:37:51;99285.08;;;17.37;64.67
50682;BME280;36779;52.168;20.878;2023-03-25T10:40:26;99282.23;;;17.44;64.84
50682;BME280;36779;52.168;20.878;2023-03-25T10:43:14;99282.42;;;17.57;64.79
50682;BME280;36779;52.168;20.878;2023-03-25T10:45:47;99278.55;;;17.67;65.10
50682;BME280;36779;52.168;20.878;2023-03-25T10:48:21;99275.83;;;17.73;64.73
50682;BME280;36779;52.168;20.878;2023-03-25T10:50:52;99274.93;;;17.74;64.68
50682;BME280;36779;52.168;20.878;2023-03-25T10:53:25;99273.67;;;17.75;64.49
50682;BME280;36779;52.168;20.878;2023-03-25T10:55:57;99273.84;;;17.63;64.12
50682;BME280;36779;52.168;20.878;2023-03-25T10:58:27;99276.11;;;17.45;63.82
50682;BME280;36779;52.168;20.878;2023-03-25T11:00:57;99272.16;;;17.24;63.62
50682;BME280;36779;52.168;20.878;2023-03-25T11:03:30;99266.06;;;16.99;63.40
50682;BME280;36779;52.168;20.878;2023-03-25T11:06:08;99262.86;;;16.76;63.41
50682;BME280;36779;52.168;20.878;2023-03-25T11:11:41;99254.81;;;16.78;63.90
50682;BME280;36779;52.168;20.878;2023-03-25T11:14:11;99252.77;;;16.80;63.96
50682;BME280;36779;52.168;20.878;2023-03-25T11:16:45;99246.73;;;16.80;63.70
50682;BME280;36779;52.168;20.878;2023-03-25T11:19:21;99239.72;;;16.77;63.81
50682;BME280;36779;52.168;20.878;2023-03-25T11:21:56;99238.70;;;16.86;64.05
50682;BME280;36779;52.168;20.878;2023-03-25T11:24:33;99233.48;;;16.90;63.78
50682;BME280;36779;52.168;20.878;2023-03-25T11:27:07;99227.56;;;16.79;63.53
50682;BME280;36779;52.168;20.878;2023-03-25T11:29:38;99226.17;;;16.65;63.46
50682;BME280;36779;52.168;20.878;2023-03-25T11:32:11;99220.06;;;16.53;63.28
50682;BME280;36779;52.168;20.878;2023-03-25T11:34:51;99216.73;;;16.44;63.50
50682;BME280;36779;52.168;20.878;2023-03-25T11:37:24;99213.96;;;16.45;63.57
50682;BME280;36779;52.168;20.878;2023-03-25T11:39:55;99211.41;;;16.41;63.61
50682;BME280;36779;52.168;20.878;2023-03-25T11:42:36;99210.77;;;16.34;63.55
50682;BME280;36779;52.168;20.878;2023-03-25T11:45:21;99214.27;;;16.26;63.39
50682;BME280;36779;52.168;20.878;2023-03-25T11:47:52;99213.88;;;16.14;63.27
50682;BME280;36779;52.168;20.878;2023-03-25T11:50:34;99213.64;;;16.02;63.24
50682;BME280;36779;52.168;20.878;2023-03-25T11:53:04;99213.17;;;15.91;63.16
50682;BME280;36779;52.168;20.878;2023-03-25T11:55:40;99211.09;;;15.84;63.15
50682;BME280;36779;52.168;20.878;2023-03-25T11:58:15;99216.77;;;15.72;63.14
50682;BME280;36779;52.168;20.878;2023-03-25T12:00:47;99218.42;;;15.56;63.09
50682;BME280;36779;52.168;20.878;2023-03-25T12:03:27;99212.55;;;15.41;63.16
50682;BME280;36779;52.168;20.878;2023-03-25T12:06:01;99203.57;;;15.29;63.08
50682;BME280;36779;52.168;20.878;2023-03-25T12:08:41;99203.85;;;15.22;63.35
50682;BME280;36779;52.168;20.878;2023-03-25T12:11:15;99204.40;;;15.20;63.20
50682;BME280;36779;52.168;20.878;2023-03-25T12:13:59;99198.92;;;15.18;63.17
50682;BME280;36779;52.168;20.878;2023-03-25T12:16:46;99195.45;;;15.23;63.52
50682;BME280;36779;52.168;20.878;2023-03-25T12:19:26;99190.64;;;15.33;63.55
50682;BME280;36779;52.168;20.878;2023-03-25T12:22:09;99185.55;;;15.35;63.38
50682;BME280;36779;52.168;20.878;2023-03-25T12:24:54;99184.61;;;15.34;63.31
50682;BME280;36779;52.168;20.878;2023-03-25T12:27:36;99182.33;;;15.31;63.27
50682;BME280;36779;52.168;20.878;2023-03-25T12:30:18;99180.77;;;15.29;63.45
50682;BME280;36779;52.168;20.878;2023-03-25T12:32:59;99180.18;;;15.30;63.34
50682;BME280;36779;52.168;20.878;2023-03-25T12:35:42;99181.17;;;15.30;63.12
50682;BME280;36779;52.168;20.878;2023-03-25T12:38:23;99180.20;;;15.28;63.29
50682;BME280;36779;52.168;20.878;2023-03-25T12:41:07;99174.74;;;15.29;63.29
50682;BME280;36779;52.168;20.878;2023-03-25T12:43:50;99170.18;;;15.31;63.35
50682;BME280;36779;52.168;20.878;2023-03-25T12:46:49;99167.27;;;15.33;63.32
50682;BME280;36779;52.168;20.878;2023-03-25T12:49:42;99167.45;;;15.35;63.09
50682;BME280;36779;52.168;20.878;2023-03-25T12:52:22;99169.88;;;15.41;63.18
50682;BME280;36779;52.168;20.878;2023-03-25T12:55:04;99169.13;;;15.41;63.14
50682;BME280;36779;52.168;20.878;2023-03-25T12:57:46;99166.56;;;15.34;62.80
50682;BME280;36779;52.168;20.878;2023-03-25T13:00:35;99166.73;;;15.22;62.69
50682;BME280;36779;52.168;20.878;2023-03-25T13:03:38;99171.09;;;15.01;62.35
50682;BME280;36779;52.168;20.878;2023-03-25T13:06:24;99173.13;;;14.71;62.18
50682;BME280;36779;52.168;20.878;2023-03-25T13:09:04;99174.89;;;14.46;62.38
50682;BME280;36779;52.168;20.878;2023-03-25T13:11:38;99174.84;;;14.27;62.65
50682;BME280;36779;52.168;20.878;2023-03-25T13:14:15;99173.30;;;14.15;62.77
50682;BME280;36779;52.168;20.878;2023-03-25T13:16:46;99173.25;;;13.99;62.63
50682;BME280;36779;52.168;20.878;2023-03-25T13:19:24;99172.75;;;13.83;62.82
50682;BME280;36779;52.168;20.878;2023-03-25T13:21:56;99172.52;;;13.68;62.71
50682;BME280;36779;52.168;20.878;2023-03-25T13:24:40;99171.27;;;13.59;63.17
50682;BME280;36779;52.168;20.878;2023-03-25T13:27:13;99170.46;;;13.53;63.11
50682;BME280;36779;52.168;20.878;2023-03-25T13:29:49;99169.14;;;13.44;62.94
50682;BME280;36779;52.168;20.878;2023-03-25T13:32:23;99163.60;;;13.34;63.03
50682;BME280;36779;52.168;20.878;2023-03-25T13:34:57;99166.46;;;13.26;62.99
50682;BME280;36779;52.168;20.878;2023-03-25T13:37:35;99159.65;;;13.18;63.09
50682;BME280;36779;52.168;20.878;2023-03-25T13:40:24;99149.59;;;13.11;62.97